sensor_id;sensor_type;location;lat;lon;timestamp;P1;durP1;ratioP1;P2;durP2;ratioP2
15358;SDS011;7779;49.596;11.070;2023-02-25T00:01:10;3.63;;;3.33;;
15358;SDS011;7779;49.596;11.070;2023-02-25T00:03:38;4.07;;;3.40;;
15358;SDS011;7779;49.596;11.070;2023-02-25T00:06:05;3.77;;;3.27;;
15358;SDS011;7779;49.596;11.070;2023-02-25T00:08:37;5.10;;;3.63;;
15358;SDS011;7779;49.596;11.070;2023-02-25T00:11:06;4.27;;;3.60;;
15358;SDS011;7779;49.596;11.070;2023-02-25T00:13:33;4.63;;;3.67;;
15358;SDS011;7779;49.596;11.070;2023-02-25T00:16:02;4.07;;;3.27;;
15358;SDS011;7779;49.596;11.070;2023-02-25T00:18:30;4.10;;;3.67;;
15358;SDS011;7779;49.596;11.070;2023-02-25T00:20:56;4.87;;;3.70;;
15358;SDS011;7779;49.596;11.070;2023-02-25T00:23:23;4.87;;;3.87;;
15358;SDS011;7779;49.596;11.070;2023-02-25T00:25:49;4.50;;;3.80;;
15358;SDS011;7779;49.596;11.070;2023-02-25T00:28:22;4.70;;;3.47;;
15358;SDS011;7779;49.596;11.070;2023-02-25T00:30:48;4.23;;;3.43;;
15358;SDS011;7779;49.596;11.070;2023-02-25T00:33:13;4.27;;;3.87;;
15358;SDS011;7779;49.596;11.070;2023-02-25T00:35:39;4.70;;;3.77;;
15358;SDS011;7779;49.596;11.070;2023-02-25T00:38:06;4.10;;;3.60;;
15358;SDS011;7779;49.596;11.070;2023-02-25T00:40:33;3.80;;;3.43;;
15358;SDS011;7779;49.596;11.070;2023-02-25T00:43:03;5.07;;;3.57;;
15358;SDS011;7779;49.596;11.070;2023-02-25T00:45:28;4.57;;;3.27;;
15358;SDS011;7779;49.596;11.070;2023-02-25T00:47:55;4.10;;;3.70;;
15358;SDS011;7779;49.596;11.070;2023-02-25T00:50:21;5.20;;;3.73;;
15358;SDS011;7779;49.596;11.070;2023-02-25T00:52:47;6.77;;;4.17;;
15358;SDS011;7779;49.596;11.070;2023-02-25T00:55:13;4.97;;;3.40;;
15358;SDS011;7779;49.596;11.070;2023-02-25T00:57:40;5.03;;;4.03;;
15358;SDS011;7779;49.596;11.070;2023-02-25T01:00:07;3.87;;;3.27;;
15358;SDS011;7779;49.596;11.070;2023-02-25T01:02:40;4.40;;;3.60;;
15358;SDS011;7779;49.596;11.070;2023-02-25T01:05:09;4.57;;;3.63;;
15358;SDS011;7779;49.596;11.070;2023-02-25T01:07:39;5.60;;;3.73;;
15358;SDS011;7779;49.596;11.070;2023-02-25T01:10:06;3.97;;;3.57;;
15358;SDS011;7779;49.596;11.070;2023-02-25T01:12:34;4.83;;;3.60;;
15358;SDS011;7779;49.596;11.070;2023-02-25T01:15:01;3.83;;;3.47;;
15358;SDS011;7779;49.596;11.070;2023-02-25T01:17:28;5.30;;;3.67;;
15358;SDS011;7779;49.596;11.070;2023-02-25T01:19:54;4.77;;;4.07;;
15358;SDS011;7779;49.596;11.070;2023-02-25T01:22:21;4.37;;;3.23;;
15358;SDS011;7779;49.596;11.070;2023-02-25T01:24:48;4.77;;;3.70;;
15358;SDS011;7779;49.596;11.070;2023-02-25T01:27:13;5.13;;;3.67;;
15358;SDS011;7779;49.596;11.070;2023-02-25T01:29:41;4.23;;;3.67;;
15358;SDS011;7779;49.596;11.070;2023-02-25T01:32:10;4.83;;;3.73;;
15358;SDS011;7779;49.596;11.070;2023-02-25T01:34:38;4.27;;;3.50;;
15358;SDS011;7779;49.596;11.070;2023-02-25T01:37:06;4.17;;;3.77;;
15358;SDS011;7779;49.596;11.070;2023-02-25T01:39:37;4.30;;;3.90;;
15358;SDS011;7779;49.596;11.070;2023-02-25T01:42:06;4.33;;;3.93;;
15358;SDS011;7779;49.596;11.070;2023-02-25T01:47:41;4.20;;;3.43;;
15358;SDS011;7779;49.596;11.070;2023-02-25T01:50:28;6.40;;;3.60;;
15358;SDS011;7779;49.596;11.070;2023-02-25T01:53:03;3.93;;;3.53;;
15358;SDS011;7779;49.596;11.070;2023-02-25T01:55:31;5.43;;;3.87;;
15358;SDS011;7779;49.596;11.070;2023-02-25T01:57:57;3.67;;;3.37;;
15358;SDS011;7779;49.596;11.070;2023-02-25T02:00:25;5.57;;;4.10;;
15358;SDS011;7779;49.596;11.070;2023-02-25T02:02:55;4.60;;;3.23;;
15358;SDS011;7779;49.596;11.070;2023-02-25T02:05:24;5.17;;;4.03;;
15358;SDS011;7779;49.596;11.070;2023-02-25T02:08:07;5.10;;;3.93;;
15358;SDS011;7779;49.596;11.070;2023-02-25T02:10:33;4.40;;;3.27;;
15358;SDS011;7779;49.596;11.070;2023-02-25T02:12:59;5.20;;;3.60;;
15358;SDS011;7779;49.596;11.070;2023-02-25T02:15:26;4.93;;;3.57;;
15358;SDS011;7779;49.596;11.070;2023-02-25T02:18:01;3.50;;;3.03;;
15358;SDS011;7779;49.596;11.070;2023-02-25T02:23:33;4.00;;;2.70;;
15358;SDS011;7779;49.596;11.070;2023-02-25T02:29:26;4.00;;;3.07;;
15358;SDS011;7779;49.596;11.070;2023-02-25T02:43:52;5.17;;;2.80;;
15358;SDS011;7779;49.596;11.070;2023-02-25T02:46:40;5.83;;;3.00;;
15358;SDS011;7779;49.596;11.070;2023-02-25T02:52:01;4.27;;;2.53;;
15358;SDS011;7779;49.596;11.070;2023-02-25T02:54:39;5.20;;;2.97;;
15358;SDS011;7779;49.596;11.070;2023-02-25T02:57:09;3.77;;;2.37;;
15358;SDS011;7779;49.596;11.070;2023-02-25T02:59:46;3.83;;;2.83;;
15358;SDS011;7779;49.596;11.070;2023-02-25T03:02:21;3.13;;;2.50;;
15358;SDS011;7779;49.596;11.070;2023-02-25T03:04:58;3.87;;;2.83;;
15358;SDS011;7779;49.596;11.070;2023-02-25T03:07:32;3.40;;;2.57;;
15358;SDS011;7779;49.596;11.070;2023-02-25T03:10:04;3.50;;;2.60;;
15358;SDS011;7779;49.596;11.070;2023-02-25T03:12:34;2.90;;;2.30;;
15358;SDS011;7779;49.596;11.070;2023-02-25T03:15:03;4.93;;;2.90;;
15358;SDS011;7779;49.596;11.070;2023-02-25T03:17:32;5.17;;;3.20;;
15358;SDS011;7779;49.596;11.070;2023-02-25T03:20:20;4.60;;;2.80;;
15358;SDS011;7779;49.596;11.070;2023-02-25T03:22:53;5.47;;;2.53;;
15358;SDS011;7779;49.596;11.070;2023-02-25T03:25:27;4.40;;;2.87;;
15358;SDS011;7779;49.596;11.070;2023-02-25T03:28:02;3.83;;;2.83;;
15358;SDS011;7779;49.596;11.070;2023-02-25T03:33:44;5.73;;;2.90;;
15358;SDS011;7779;49.596;11.070;2023-02-25T03:36:38;3.10;;;2.50;;
15358;SDS011;7779;49.596;11.070;2023-02-25T03:39:13;3.00;;;2.40;;
15358;SDS011;7779;49.596;11.070;2023-02-25T03:41:52;3.30;;;2.87;;
15358;SDS011;7779;49.596;11.070;2023-02-25T03:44:26;4.10;;;2.50;;
15358;SDS011;7779;49.596;11.070;2023-02-25T03:47:07;3.50;;;2.57;;
15358;SDS011;7779;49.596;11.070;2023-02-25T03:50:21;4.50;;;2.33;;
15358;SDS011;7779;49.596;11.070;2023-02-25T03:52:33;3.47;;;2.40;;
15358;SDS011;7779;49.596;11.070;2023-02-25T03:55:04;4.43;;;2.33;;
15358;SDS011;7779;49.596;11.070;2023-02-25T03:57:41;2.97;;;2.10;;
15358;SDS011;7779;49.596;11.070;2023-02-25T04:00:15;5.03;;;2.40;;
15358;SDS011;7779;49.596;11.070;2023-02-25T04:02:52;2.60;;;2.40;;
15358;SDS011;7779;49.596;11.070;2023-02-25T04:05:18;2.90;;;2.37;;
15358;SDS011;7779;49.596;11.070;2023-02-25T04:07:46;4.30;;;2.40;;
15358;SDS011;7779;49.596;11.070;2023-02-25T04:10:14;5.20;;;2.60;;
15358;SDS011;7779;49.596;11.070;2023-02-25T04:12:41;3.17;;;2.17;;
15358;SDS011;7779;49.596;11.070;2023-02-25T04:15:07;4.80;;;2.00;;
15358;SDS011;7779;49.596;11.070;2023-02-25T04:17:34;3.47;;;1.70;;
15358;SDS011;7779;49.596;11.070;2023-02-25T04:20:01;2.73;;;1.73;;
15358;SDS011;7779;49.596;11.070;2023-02-25T04:22:29;3.77;;;1.97;;
15358;SDS011;7779;49.596;11.070;2023-02-25T04:24:54;3.60;;;1.93;;
15358;SDS011;7779;49.596;11.070;2023-02-25T04:27:20;4.77;;;1.77;;
15358;SDS011;7779;49.596;11.070;2023-02-25T04:29:46;4.53;;;1.90;;
15358;SDS011;7779;49.596;11.070;2023-02-25T04:32:11;3.40;;;1.60;;
15358;SDS011;7779;49.596;11.070;2023-02-25T04:34:37;3.33;;;1.37;;
15358;SDS011;7779;49.596;11.070;2023-02-25T04:37:03;3.13;;;1.70;;
15358;SDS011;7779;49.596;11.070;2023-02-25T04:39:29;4.83;;;1.80;;
15358;SDS011;7779;49.596;11.070;2023-02-25T04:41:56;1.77;;;1.20;;
15358;SDS011;7779;49.596;11.070;2023-02-25T04:44:23;3.63;;;1.30;;
15358;SDS011;7779;49.596;11.070;2023-02-25T04:46:48;4.63;;;1.60;;
15358;SDS011;7779;49.596;11.070;2023-02-25T04:49:16;3.37;;;1.50;;
15358;SDS011;7779;49.596;11.070;2023-02-25T04:51:44;2.37;;;1.53;;
15358;SDS011;7779;49.596;11.070;2023-02-25T04:54:11;4.83;;;1.40;;
15358;SDS011;7779;49.596;11.070;2023-02-25T04:56:37;3.43;;;1.33;;
15358;SDS011;7779;49.596;11.070;2023-02-25T04:59:04;3.57;;;1.40;;
15358;SDS011;7779;49.596;11.070;2023-02-25T05:01:30;2.97;;;1.40;;
15358;SDS011;7779;49.596;11.070;2023-02-25T05:03:57;4.27;;;1.70;;
15358;SDS011;7779;49.596;11.070;2023-02-25T05:06:25;3.90;;;1.50;;
15358;SDS011;7779;49.596;11.070;2023-02-25T05:08:54;5.13;;;1.70;;
15358;SDS011;7779;49.596;11.070;2023-02-25T05:11:22;3.93;;;1.70;;
15358;SDS011;7779;49.596;11.070;2023-02-25T05:13:51;4.27;;;1.40;;
15358;SDS011;7779;49.596;11.070;2023-02-25T05:16:20;3.03;;;1.47;;
15358;SDS011;7779;49.596;11.070;2023-02-25T05:18:46;4.17;;;1.33;;
15358;SDS011;7779;49.596;11.070;2023-02-25T05:21:13;5.10;;;1.60;;
15358;SDS011;7779;49.596;11.070;2023-02-25T05:23:44;3.43;;;1.27;;
15358;SDS011;7779;49.596;11.070;2023-02-25T05:26:12;3.40;;;1.30;;
15358;SDS011;7779;49.596;11.070;2023-02-25T05:28:40;3.20;;;1.43;;
15358;SDS011;7779;49.596;11.070;2023-02-25T05:31:09;4.23;;;1.33;;
15358;SDS011;7779;49.596;11.070;2023-02-25T05:33:36;5.33;;;1.60;;
15358;SDS011;7779;49.596;11.070;2023-02-25T05:36:05;4.93;;;1.90;;
15358;SDS011;7779;49.596;11.070;2023-02-25T05:38:36;4.13;;;1.77;;
15358;SDS011;7779;49.596;11.070;2023-02-25T05:41:03;4.93;;;1.80;;
15358;SDS011;7779;49.596;11.070;2023-02-25T05:43:32;4.17;;;1.60;;
15358;SDS011;7779;49.596;11.070;2023-02-25T05:46:00;3.87;;;1.90;;
15358;SDS011;7779;49.596;11.070;2023-02-25T05:48:27;3.17;;;1.63;;
15358;SDS011;7779;49.596;11.070;2023-02-25T05:50:59;3.17;;;1.30;;
15358;SDS011;7779;49.596;11.070;2023-02-25T05:53:27;2.73;;;1.70;;
15358;SDS011;7779;49.596;11.070;2023-02-25T05:55:54;3.10;;;1.60;;
15358;SDS011;7779;49.596;11.070;2023-02-25T05:58:19;4.53;;;1.60;;
15358;SDS011;7779;49.596;11.070;2023-02-25T06:00:46;3.33;;;1.60;;
15358;SDS011;7779;49.596;11.070;2023-02-25T06:03:11;3.97;;;1.90;;
15358;SDS011;7779;49.596;11.070;2023-02-25T06:05:40;5.77;;;1.80;;
15358;SDS011;7779;49.596;11.070;2023-02-25T06:08:10;5.70;;;1.87;;
15358;SDS011;7779;49.596;11.070;2023-02-25T06:10:37;4.57;;;1.77;;
15358;SDS011;7779;49.596;11.070;2023-02-25T06:13:04;4.73;;;1.80;;
15358;SDS011;7779;49.596;11.070;2023-02-25T06:15:32;2.97;;;1.73;;
15358;SDS011;7779;49.596;11.070;2023-02-25T06:18:01;3.73;;;1.77;;
15358;SDS011;7779;49.596;11.070;2023-02-25T06:20:27;4.43;;;1.80;;
15358;SDS011;7779;49.596;11.070;2023-02-25T06:22:52;4.80;;;1.27;;
15358;SDS011;7779;49.596;11.070;2023-02-25T06:25:18;2.53;;;1.40;;
15358;SDS011;7779;49.596;11.070;2023-02-25T06:27:44;5.10;;;2.00;;
15358;SDS011;7779;49.596;11.070;2023-02-25T06:30:10;3.33;;;1.50;;
15358;SDS011;7779;49.596;11.070;2023-02-25T06:32:37;4.97;;;1.83;;
15358;SDS011;7779;49.596;11.070;2023-02-25T06:35:03;6.13;;;1.97;;
15358;SDS011;7779;49.596;11.070;2023-02-25T06:37:32;3.67;;;1.60;;
15358;SDS011;7779;49.596;11.070;2023-02-25T06:39:58;5.80;;;1.50;;
15358;SDS011;7779;49.596;11.070;2023-02-25T06:42:24;3.50;;;1.70;;
15358;SDS011;7779;49.596;11.070;2023-02-25T06:44:49;4.77;;;1.83;;
15358;SDS011;7779;49.596;11.070;2023-02-25T06:47:15;6.40;;;1.87;;
15358;SDS011;7779;49.596;11.070;2023-02-25T06:49:41;2.80;;;1.60;;
15358;SDS011;7779;49.596;11.070;2023-02-25T06:52:08;4.27;;;1.67;;
15358;SDS011;7779;49.596;11.070;2023-02-25T06:54:33;4.27;;;1.50;;
15358;SDS011;7779;49.596;11.070;2023-02-25T06:56:59;5.20;;;1.80;;
15358;SDS011;7779;49.596;11.070;2023-02-25T06:59:25;4.17;;;1.50;;
15358;SDS011;7779;49.596;11.070;2023-02-25T07:01:50;2.10;;;1.10;;
15358;SDS011;7779;49.596;11.070;2023-02-25T07:04:17;7.07;;;2.07;;
15358;SDS011;7779;49.596;11.070;2023-02-25T07:06:43;2.40;;;1.60;;
15358;SDS011;7779;49.596;11.070;2023-02-25T07:09:09;4.73;;;1.60;;
15358;SDS011;7779;49.596;11.070;2023-02-25T07:11:35;6.47;;;1.90;;
15358;SDS011;7779;49.596;11.070;2023-02-25T07:14:01;2.60;;;1.50;;
15358;SDS011;7779;49.596;11.070;2023-02-25T07:16:29;3.60;;;1.40;;
15358;SDS011;7779;49.596;11.070;2023-02-25T07:18:55;3.63;;;1.50;;
15358;SDS011;7779;49.596;11.070;2023-02-25T07:21:22;3.77;;;1.57;;
15358;SDS011;7779;49.596;11.070;2023-02-25T07:23:49;3.83;;;2.03;;
15358;SDS011;7779;49.596;11.070;2023-02-25T07:26:15;3.33;;;1.80;;
15358;SDS011;7779;49.596;11.070;2023-02-25T07:28:41;3.60;;;1.63;;
15358;SDS011;7779;49.596;11.070;2023-02-25T07:31:14;2.03;;;1.43;;
15358;SDS011;7779;49.596;11.070;2023-02-25T07:33:43;2.23;;;1.53;;
15358;SDS011;7779;49.596;11.070;2023-02-25T07:36:10;2.93;;;1.57;;
15358;SDS011;7779;49.596;11.070;2023-02-25T07:38:36;4.20;;;1.50;;
15358;SDS011;7779;49.596;11.070;2023-02-25T07:41:06;3.53;;;1.37;;
15358;SDS011;7779;49.596;11.070;2023-02-25T07:43:37;2.73;;;1.50;;
15358;SDS011;7779;49.596;11.070;2023-02-25T07:46:03;5.40;;;1.90;;
15358;SDS011;7779;49.596;11.070;2023-02-25T07:48:30;5.07;;;1.77;;
15358;SDS011;7779;49.596;11.070;2023-02-25T07:51:03;2.70;;;1.57;;
15358;SDS011;7779;49.596;11.070;2023-02-25T07:53:41;4.37;;;1.60;;
15358;SDS011;7779;49.596;11.070;2023-02-25T07:56:07;4.20;;;1.97;;
15358;SDS011;7779;49.596;11.070;2023-02-25T07:58:33;2.73;;;1.73;;
15358;SDS011;7779;49.596;11.070;2023-02-25T08:01:00;5.83;;;1.90;;
15358;SDS011;7779;49.596;11.070;2023-02-25T08:03:31;3.90;;;1.60;;
15358;SDS011;7779;49.596;11.070;2023-02-25T08:05:57;4.37;;;1.60;;
15358;SDS011;7779;49.596;11.070;2023-02-25T08:08:26;5.00;;;2.13;;
15358;SDS011;7779;49.596;11.070;2023-02-25T08:10:52;5.30;;;1.80;;
15358;SDS011;7779;49.596;11.070;2023-02-25T08:13:18;6.00;;;2.20;;
15358;SDS011;7779;49.596;11.070;2023-02-25T08:15:44;3.70;;;1.70;;
15358;SDS011;7779;49.596;11.070;2023-02-25T08:18:10;4.83;;;2.00;;
15358;SDS011;7779;49.596;11.070;2023-02-25T08:20:36;4.27;;;1.90;;
15358;SDS011;7779;49.596;11.070;2023-02-25T08:23:02;4.13;;;2.07;;
15358;SDS011;7779;49.596;11.070;2023-02-25T08:25:28;5.10;;;2.20;;
15358;SDS011;7779;49.596;11.070;2023-02-25T08:27:54;6.33;;;1.90;;
15358;SDS011;7779;49.596;11.070;2023-02-25T08:30:20;3.10;;;1.60;;
15358;SDS011;7779;49.596;11.070;2023-02-25T08:32:46;2.23;;;1.50;;
15358;SDS011;7779;49.596;11.070;2023-02-25T08:35:12;3.77;;;1.63;;
15358;SDS011;7779;49.596;11.070;2023-02-25T08:37:38;3.87;;;2.10;;
15358;SDS011;7779;49.596;11.070;2023-02-25T08:40:04;3.07;;;1.73;;
15358;SDS011;7779;49.596;11.070;2023-02-25T08:42:35;7.20;;;1.50;;
15358;SDS011;7779;49.596;11.070;2023-02-25T08:45:02;5.37;;;2.07;;
15358;SDS011;7779;49.596;11.070;2023-02-25T08:47:29;5.57;;;2.20;;
15358;SDS011;7779;49.596;11.070;2023-02-25T08:49:55;3.80;;;1.70;;
15358;SDS011;7779;49.596;11.070;2023-02-25T08:52:20;8.17;;;2.20;;
15358;SDS011;7779;49.596;11.070;2023-02-25T08:54:46;3.43;;;1.83;;
15358;SDS011;7779;49.596;11.070;2023-02-25T08:57:12;4.60;;;1.70;;
15358;SDS011;7779;49.596;11.070;2023-02-25T08:59:37;4.43;;;1.70;;
15358;SDS011;7779;49.596;11.070;2023-02-25T09:02:05;5.20;;;1.90;;
15358;SDS011;7779;49.596;11.070;2023-02-25T09:04:39;6.77;;;2.13;;
15358;SDS011;7779;49.596;11.070;2023-02-25T09:07:05;5.47;;;2.00;;
15358;SDS011;7779;49.596;11.070;2023-02-25T09:09:31;4.37;;;1.77;;
15358;SDS011;7779;49.596;11.070;2023-02-25T09:11:58;5.43;;;1.80;;
15358;SDS011;7779;49.596;11.070;2023-02-25T09:14:25;5.63;;;2.07;;
15358;SDS011;7779;49.596;11.070;2023-02-25T09:16:51;5.60;;;1.70;;
15358;SDS011;7779;49.596;11.070;2023-02-25T09:19:17;5.63;;;2.10;;
15358;SDS011;7779;49.596;11.070;2023-02-25T09:21:43;5.23;;;1.83;;
15358;SDS011;7779;49.596;11.070;2023-02-25T09:24:14;5.47;;;1.83;;
15358;SDS011;7779;49.596;11.070;2023-02-25T09:26:41;4.10;;;1.73;;
15358;SDS011;7779;49.596;11.070;2023-02-25T09:29:06;5.43;;;2.07;;
15358;SDS011;7779;49.596;11.070;2023-02-25T09:31:33;4.83;;;1.90;;
15358;SDS011;7779;49.596;11.070;2023-02-25T09:34:01;3.60;;;2.00;;
15358;SDS011;7779;49.596;11.070;2023-02-25T09:36:30;5.87;;;2.10;;
15358;SDS011;7779;49.596;11.070;2023-02-25T09:38:56;2.50;;;1.70;;
15358;SDS011;7779;49.596;11.070;2023-02-25T09:41:24;2.80;;;1.80;;
15358;SDS011;7779;49.596;11.070;2023-02-25T09:47:11;3.93;;;1.90;;
15358;SDS011;7779;49.596;11.070;2023-02-25T09:54:58;3.57;;;1.60;;
15358;SDS011;7779;49.596;11.070;2023-02-25T09:57:42;3.27;;;1.80;;
15358;SDS011;7779;49.596;11.070;2023-02-25T10:00:19;6.17;;;2.20;;
15358;SDS011;7779;49.596;11.070;2023-02-25T10:02:49;4.33;;;2.03;;
15358;SDS011;7779;49.596;11.070;2023-02-25T10:05:25;3.53;;;1.90;;
15358;SDS011;7779;49.596;11.070;2023-02-25T10:10:56;4.47;;;2.07;;
15358;SDS011;7779;49.596;11.070;2023-02-25T10:16:47;4.33;;;1.70;;
15358;SDS011;7779;49.596;11.070;2023-02-25T10:24:40;3.47;;;1.80;;
15358;SDS011;7779;49.596;11.070;2023-02-25T10:27:18;3.33;;;1.87;;
15358;SDS011;7779;49.596;11.070;2023-02-25T10:29:51;6.43;;;2.20;;
15358;SDS011;7779;49.596;11.070;2023-02-25T10:32:26;2.63;;;1.77;;
15358;SDS011;7779;49.596;11.070;2023-02-25T10:34:59;4.13;;;1.60;;
15358;SDS011;7779;49.596;11.070;2023-02-25T10:37:36;3.97;;;1.87;;
15358;SDS011;7779;49.596;11.070;2023-02-25T10:40:03;5.17;;;2.10;;
15358;SDS011;7779;49.596;11.070;2023-02-25T10:42:35;2.50;;;1.60;;
15358;SDS011;7779;49.596;11.070;2023-02-25T10:45:05;4.87;;;2.13;;
15358;SDS011;7779;49.596;11.070;2023-02-25T10:47:36;2.93;;;1.60;;
15358;SDS011;7779;49.596;11.070;2023-02-25T10:52:50;4.37;;;2.00;;
15358;SDS011;7779;49.596;11.070;2023-02-25T10:55:38;5.13;;;2.13;;
15358;SDS011;7779;49.596;11.070;2023-02-25T10:58:26;2.73;;;1.40;;
15358;SDS011;7779;49.596;11.070;2023-02-25T11:01:02;3.50;;;1.80;;
15358;SDS011;7779;49.596;11.070;2023-02-25T11:03:58;3.70;;;1.80;;
15358;SDS011;7779;49.596;11.070;2023-02-25T11:06:31;3.20;;;1.53;;
15358;SDS011;7779;49.596;11.070;2023-02-25T11:09:06;4.93;;;1.93;;
15358;SDS011;7779;49.596;11.070;2023-02-25T11:11:54;4.37;;;1.63;;
15358;SDS011;7779;49.596;11.070;2023-02-25T11:14:40;2.53;;;1.30;;
15358;SDS011;7779;49.596;11.070;2023-02-25T11:19:38;4.73;;;1.40;;
15358;SDS011;7779;49.596;11.070;2023-02-25T11:22:09;6.27;;;1.70;;
15358;SDS011;7779;49.596;11.070;2023-02-25T11:24:57;5.20;;;1.60;;
15358;SDS011;7779;49.596;11.070;2023-02-25T11:27:39;3.47;;;1.40;;
15358;SDS011;7779;49.596;11.070;2023-02-25T11:32:39;1.37;;;1.10;;
15358;SDS011;7779;49.596;11.070;2023-02-25T11:35:15;1.47;;;1.37;;
15358;SDS011;7779;49.596;11.070;2023-02-25T11:37:47;3.03;;;1.30;;
15358;SDS011;7779;49.596;11.070;2023-02-25T11:40:24;2.33;;;1.67;;
15358;SDS011;7779;49.596;11.070;2023-02-25T11:45:33;2.77;;;1.40;;
15358;SDS011;7779;49.596;11.070;2023-02-25T11:48:05;2.03;;;1.20;;
15358;SDS011;7779;49.596;11.070;2023-02-25T11:50:47;2.10;;;1.30;;
15358;SDS011;7779;49.596;11.070;2023-02-25T11:53:36;2.17;;;1.40;;
15358;SDS011;7779;49.596;11.070;2023-02-25T11:56:47;3.13;;;1.60;;
15358;SDS011;7779;49.596;11.070;2023-02-25T11:59:35;2.10;;;1.63;;
15358;SDS011;7779;49.596;11.070;2023-02-25T12:16:56;3.40;;;1.47;;
15358;SDS011;7779;49.596;11.070;2023-02-25T12:19:45;2.97;;;1.50;;
15358;SDS011;7779;49.596;11.070;2023-02-25T12:28:30;3.00;;;1.50;;
15358;SDS011;7779;49.596;11.070;2023-02-25T12:37:21;2.57;;;1.30;;
15358;SDS011;7779;49.596;11.070;2023-02-25T13:14:35;0.20;;;0.20;;
15358;SDS011;7779;49.596;11.070;2023-02-25T13:23:17;0.83;;;0.40;;
15358;SDS011;7779;49.596;11.070;2023-02-25T13:26:16;0.47;;;0.30;;
15358;SDS011;7779;49.596;11.070;2023-02-25T13:40:24;1.23;;;0.70;;
15358;SDS011;7779;49.596;11.070;2023-02-25T13:49:02;1.57;;;0.50;;
15358;SDS011;7779;49.596;11.070;2023-02-25T13:58:47;1.60;;;0.40;;
15358;SDS011;7779;49.596;11.070;2023-02-25T14:01:37;0.60;;;0.40;;
15358;SDS011;7779;49.596;11.070;2023-02-25T14:04:35;1.67;;;0.73;;
15358;SDS011;7779;49.596;11.070;2023-02-25T14:10:32;0.70;;;0.40;;
15358;SDS011;7779;49.596;11.070;2023-02-25T14:16:41;0.80;;;0.40;;
15358;SDS011;7779;49.596;11.070;2023-02-25T14:23:04;0.50;;;0.40;;
15358;SDS011;7779;49.596;11.070;2023-02-25T14:26:17;0.60;;;0.50;;
15358;SDS011;7779;49.596;11.070;2023-02-25T14:29:36;0.50;;;0.40;;
15358;SDS011;7779;49.596;11.070;2023-02-25T14:45:12;0.57;;;0.50;;
15358;SDS011;7779;49.596;11.070;2023-02-25T14:47:52;0.60;;;0.40;;
15358;SDS011;7779;49.596;11.070;2023-02-25T14:50:32;0.70;;;0.40;;
15358;SDS011;7779;49.596;11.070;2023-02-25T14:53:15;1.13;;;0.47;;
15358;SDS011;7779;49.596;11.070;2023-02-25T14:56:37;0.80;;;0.70;;
15358;SDS011;7779;49.596;11.070;2023-02-25T15:05:33;0.47;;;0.40;;
15358;SDS011;7779;49.596;11.070;2023-02-25T15:08:35;0.70;;;0.50;;
15358;SDS011;7779;49.596;11.070;2023-02-25T15:20:51;1.63;;;0.60;;
15358;SDS011;7779;49.596;11.070;2023-02-25T15:23:19;1.17;;;0.93;;
15358;SDS011;7779;49.596;11.070;2023-02-25T15:51:37;1.00;;;0.60;;
15358;SDS011;7779;49.596;11.070;2023-02-25T15:55:13;1.00;;;0.60;;
15358;SDS011;7779;49.596;11.070;2023-02-25T15:57:01;2.70;;;0.70;;
15358;SDS011;7779;49.596;11.070;2023-02-25T16:04:54;1.17;;;0.73;;
15358;SDS011;7779;49.596;11.070;2023-02-25T16:07:39;1.10;;;0.60;;
15358;SDS011;7779;49.596;11.070;2023-02-25T16:12:43;1.53;;;0.60;;
15358;SDS011;7779;49.596;11.070;2023-02-25T16:15:24;0.90;;;0.50;;
15358;SDS011;7779;49.596;11.070;2023-02-25T16:18:11;0.57;;;0.50;;
15358;SDS011;7779;49.596;11.070;2023-02-25T16:21:13;0.90;;;0.30;;
15358;SDS011;7779;49.596;11.070;2023-02-25T16:24:05;1.03;;;0.50;;
15358;SDS011;7779;49.596;11.070;2023-02-25T16:26:46;0.73;;;0.33;;
15358;SDS011;7779;49.596;11.070;2023-02-25T16:38:38;1.13;;;0.40;;
15358;SDS011;7779;49.596;11.070;2023-02-25T16:41:29;0.53;;;0.40;;
15358;SDS011;7779;49.596;11.070;2023-02-25T16:43:55;0.43;;;0.43;;
15358;SDS011;7779;49.596;11.070;2023-02-25T16:46:31;0.60;;;0.43;;
15358;SDS011;7779;49.596;11.070;2023-02-25T16:49:00;0.93;;;0.40;;
15358;SDS011;7779;49.596;11.070;2023-02-25T16:51:39;0.70;;;0.53;;
15358;SDS011;7779;49.596;11.070;2023-02-25T16:56:45;0.53;;;0.40;;
15358;SDS011;7779;49.596;11.070;2023-02-25T16:59:20;0.80;;;0.47;;
15358;SDS011;7779;49.596;11.070;2023-02-25T17:01:52;1.00;;;0.60;;
15358;SDS011;7779;49.596;11.070;2023-02-25T17:04:27;0.60;;;0.50;;
15358;SDS011;7779;49.596;11.070;2023-02-25T17:09:48;0.87;;;0.67;;
15358;SDS011;7779;49.596;11.070;2023-02-25T17:15:27;1.00;;;0.73;;
15358;SDS011;7779;49.596;11.070;2023-02-25T17:21:37;1.90;;;0.90;;
15358;SDS011;7779;49.596;11.070;2023-02-25T17:23:47;0.83;;;0.60;;
15358;SDS011;7779;49.596;11.070;2023-02-25T17:26:15;0.90;;;0.60;;
15358;SDS011;7779;49.596;11.070;2023-02-25T17:28:43;1.13;;;0.80;;
15358;SDS011;7779;49.596;11.070;2023-02-25T17:31:18;1.10;;;0.80;;
15358;SDS011;7779;49.596;11.070;2023-02-25T17:33:54;1.00;;;0.70;;
15358;SDS011;7779;49.596;11.070;2023-02-25T17:36:26;1.97;;;0.90;;
15358;SDS011;7779;49.596;11.070;2023-02-25T17:38:57;1.10;;;1.00;;
15358;SDS011;7779;49.596;11.070;2023-02-25T17:41:30;3.33;;;1.17;;
15358;SDS011;7779;49.596;11.070;2023-02-25T17:43:57;1.00;;;0.70;;
15358;SDS011;7779;49.596;11.070;2023-02-25T17:49:01;1.37;;;0.80;;
15358;SDS011;7779;49.596;11.070;2023-02-25T17:52:04;1.10;;;1.00;;
15358;SDS011;7779;49.596;11.070;2023-02-25T17:54:44;0.87;;;0.73;;
15358;SDS011;7779;49.596;11.070;2023-02-25T17:57:15;1.13;;;0.50;;
15358;SDS011;7779;49.596;11.070;2023-02-25T17:59:52;1.27;;;0.77;;
15358;SDS011;7779;49.596;11.070;2023-02-25T18:02:41;1.50;;;0.70;;
15358;SDS011;7779;49.596;11.070;2023-02-25T18:08:23;0.60;;;0.50;;
15358;SDS011;7779;49.596;11.070;2023-02-25T18:10:42;0.83;;;0.53;;
15358;SDS011;7779;49.596;11.070;2023-02-25T18:13:18;0.47;;;0.40;;
15358;SDS011;7779;49.596;11.070;2023-02-25T18:18:51;1.50;;;0.60;;
15358;SDS011;7779;49.596;11.070;2023-02-25T18:21:18;0.50;;;0.50;;
15358;SDS011;7779;49.596;11.070;2023-02-25T18:23:44;0.50;;;0.50;;
15358;SDS011;7779;49.596;11.070;2023-02-25T18:26:19;1.47;;;0.50;;
15358;SDS011;7779;49.596;11.070;2023-02-25T18:28:48;0.50;;;0.50;;
15358;SDS011;7779;49.596;11.070;2023-02-25T18:31:15;0.63;;;0.40;;
15358;SDS011;7779;49.596;11.070;2023-02-25T18:33:43;0.83;;;0.40;;
15358;SDS011;7779;49.596;11.070;2023-02-25T18:36:24;1.33;;;0.70;;
15358;SDS011;7779;49.596;11.070;2023-02-25T18:38:52;0.70;;;0.60;;
15358;SDS011;7779;49.596;11.070;2023-02-25T18:41:22;0.77;;;0.60;;
15358;SDS011;7779;49.596;11.070;2023-02-25T18:43:48;0.70;;;0.60;;
15358;SDS011;7779;49.596;11.070;2023-02-25T18:46:13;0.87;;;0.80;;
15358;SDS011;7779;49.596;11.070;2023-02-25T18:48:39;1.07;;;0.97;;
15358;SDS011;7779;49.596;11.070;2023-02-25T18:51:08;1.90;;;1.07;;
15358;SDS011;7779;49.596;11.070;2023-02-25T18:53:38;0.83;;;0.70;;
15358;SDS011;7779;49.596;11.070;2023-02-25T18:56:04;0.70;;;0.60;;
15358;SDS011;7779;49.596;11.070;2023-02-25T18:58:31;1.10;;;0.70;;
15358;SDS011;7779;49.596;11.070;2023-02-25T19:00:57;0.87;;;0.63;;
15358;SDS011;7779;49.596;11.070;2023-02-25T19:03:25;0.87;;;0.60;;
15358;SDS011;7779;49.596;11.070;2023-02-25T19:05:55;0.70;;;0.50;;
15358;SDS011;7779;49.596;11.070;2023-02-25T19:08:22;0.67;;;0.67;;
15358;SDS011;7779;49.596;11.070;2023-02-25T19:10:48;1.07;;;0.87;;
15358;SDS011;7779;49.596;11.070;2023-02-25T19:13:18;0.97;;;0.67;;
15358;SDS011;7779;49.596;11.070;2023-02-25T19:15:51;1.27;;;0.73;;
15358;SDS011;7779;49.596;11.070;2023-02-25T19:18:17;0.80;;;0.70;;
15358;SDS011;7779;49.596;11.070;2023-02-25T19:20:42;1.23;;;0.80;;
15358;SDS011;7779;49.596;11.070;2023-02-25T19:23:12;1.70;;;0.90;;
15358;SDS011;7779;49.596;11.070;2023-02-25T19:25:40;0.90;;;0.70;;
15358;SDS011;7779;49.596;11.070;2023-02-25T19:28:07;0.70;;;0.60;;